Time;durP1;ratioP1;P1;durP2;ratioP2;P2;SDS_P1;SDS_P2;PMS_P1;PMS_P2;Temp;Humidity;BMP_temperature;BMP_pressure;BME280_temperature;BME280_humidity;BME280_pressure;Samples;Min_cycle;Max_cycle;Signal;HPM_P1;HPM_P2
2022/12/04 00:01:41;;;;;;;13.68;8.63;;;;;;;;;;5031520;28;20555;-80
2022/12/04 00:04:08;;;;;;;16.23;9.05;;;;;;;;;;5037058;28;20133;-80
2022/12/04 00:06:34;;;;;;;15.85;8.88;;;;;;;;;;5051251;28;20038;-80
2022/12/04 00:09:00;;;;;;;11.88;7.10;;;;;;;;;;5035275;28;20042;-80
2022/12/04 00:11:27;;;;;;;19.25;8.88;;;;;;;;;;5034738;28;20041;-80
2022/12/04 00:13:54;;;;;;;20.67;10.13;;;;;;;;;;5043447;28;20075;-80
2022/12/04 00:16:21;;;;;;;16.42;10.13;;;;;;;;;;5035367;28;20160;-80
2022/12/04 00:18:48;;;;;;;15.75;8.73;;;;;;;;;;5035825;28;20362;-80
2022/12/04 00:21:14;;;;;;;16.60;8.88;;;;;;;;;;5035415;28;20689;-80
2022/12/04 00:23:41;;;;;;;16.83;10.13;;;;;;;;;;5036746;28;20042;-80
2022/12/04 00:26:08;;;;;;;19.13;10.70;;;;;;;;;;5033283;28;20054;-80
2022/12/04 00:28:35;;;;;;;18.55;9.27;;;;;;;;;;5052890;28;20047;-80
2022/12/04 00:31:04;;;;;;;16.27;9.98;;;;;;;;;;5035387;28;20049;-80
2022/12/04 00:33:30;;;;;;;17.42;9.25;;;;;;;;;;5033966;28;20048;-80
2022/12/04 00:36:00;;;;;;;18.30;10.13;;;;;;;;;;5035252;28;20045;-80
2022/12/04 00:38:26;;;;;;;16.95;9.70;;;;;;;;;;5034808;28;20585;-80
2022/12/04 00:40:53;;;;;;;19.60;10.27;;;;;;;;;;5034163;28;20115;-81
2022/12/04 00:43:20;;;;;;;15.48;9.93;;;;;;;;;;5049924;28;20536;-80
2022/12/04 00:45:46;;;;;;;18.80;9.77;;;;;;;;;;5050690;28;20073;-80
2022/12/04 00:48:12;;;;;;;20.20;10.20;;;;;;;;;;5035972;28;20048;-80
2022/12/04 00:50:38;;;;;;;21.92;11.13;;;;;;;;;;5036355;28;20041;-81
2022/12/04 00:53:04;;;;;;;16.60;10.25;;;;;;;;;;5035903;28;20464;-80
2022/12/04 00:55:30;;;;;;;15.02;8.82;;;;;;;;;;5044545;28;20547;-80
2022/12/04 00:57:56;;;;;;;27.77;12.82;;;;;;;;;;5049478;28;20098;-81
2022/12/04 01:00:22;;;;;;;18.77;10.27;;;;;;;;;;5033059;28;20049;-80
2022/12/04 01:02:48;;;;;;;22.42;9.90;;;;;;;;;;5050571;28;20060;-81
2022/12/04 01:05:15;;;;;;;18.60;10.00;;;;;;;;;;5036109;28;20037;-82
2022/12/04 01:07:41;;;;;;;20.67;9.10;;;;;;;;;;5035684;28;20049;-80
2022/12/04 01:10:08;;;;;;;18.38;9.90;;;;;;;;;;5035511;28;20041;-81
2022/12/04 01:12:34;;;;;;;13.55;7.78;;;;;;;;;;5033986;28;21648;-80
2022/12/04 01:15:00;;;;;;;24.58;11.98;;;;;;;;;;5033985;28;20599;-80
2022/12/04 01:17:27;;;;;;;25.40;13.20;;;;;;;;;;5050129;28;20543;-81
2022/12/04 01:19:53;;;;;;;17.45;9.55;;;;;;;;;;5036197;28;20129;-80
2022/12/04 01:22:19;;;;;;;26.90;11.63;;;;;;;;;;5033727;28;20042;-80
2022/12/04 01:24:45;;;;;;;18.15;8.30;;;;;;;;;;5035149;28;20045;-80
2022/12/04 01:27:11;;;;;;;19.75;8.90;;;;;;;;;;5035806;28;20053;-81
2022/12/04 01:29:37;;;;;;;26.23;11.85;;;;;;;;;;5050126;28;20045;-80
2022/12/04 01:32:03;;;;;;;29.10;11.02;;;;;;;;;;5049302;28;20060;-80
2022/12/04 01:34:29;;;;;;;23.40;11.23;;;;;;;;;;5030409;28;20061;-80
2022/12/04 01:36:55;;;;;;;19.80;11.57;;;;;;;;;;5049249;28;20041;-81
2022/12/04 01:39:22;;;;;;;20.52;10.40;;;;;;;;;;5049810;28;20531;-80
2022/12/04 01:41:48;;;;;;;20.05;9.82;;;;;;;;;;5033200;28;20052;-80
2022/12/04 01:44:19;;;;;;;16.20;9.27;;;;;;;;;;5034478;28;20052;-81
2022/12/04 01:46:55;;;;;;;18.63;10.10;;;;;;;;;;5034166;28;20041;-80
2022/12/04 01:49:24;;;;;;;20.70;9.85;;;;;;;;;;5035004;28;20056;-81
2022/12/04 01:51:52;;;;;;;18.30;10.10;;;;;;;;;;5033758;28;20033;-81
2022/12/04 01:54:20;;;;;;;23.02;9.57;;;;;;;;;;5032747;28;20883;-80
2022/12/04 01:56:54;;;;;;;17.23;9.00;;;;;;;;;;5029495;28;20498;-81
2022/12/04 01:59:22;;;;;;;20.73;10.73;;;;;;;;;;5035116;28;20588;-80
2022/12/04 02:01:59;;;;;;;22.83;9.68;;;;;;;;;;5032320;28;20120;-80
2022/12/04 02:04:25;;;;;;;21.63;9.82;;;;;;;;;;5032304;28;20269;-80
2022/12/04 02:06:51;;;;;;;19.05;10.77;;;;;;;;;;5032193;28;20547;-80
2022/12/04 02:09:18;;;;;;;25.95;12.02;;;;;;;;;;5033209;28;20073;-81
2022/12/04 02:12:08;;;;;;;21.10;12.52;;;;;;;;;;5031873;28;20053;-81
2022/12/04 02:14:45;;;;;;;16.17;9.18;;;;;;;;;;5022367;28;20053;-79
2022/12/04 02:17:28;;;;;;;16.45;9.02;;;;;;;;;;5047256;28;20736;-79
2022/12/04 02:19:57;;;;;;;17.08;7.88;;;;;;;;;;5034453;28;20075;-79
2022/12/04 02:22:42;;;;;;;20.23;11.80;;;;;;;;;;5030812;28;20051;-79
2022/12/04 02:25:31;;;;;;;20.48;9.90;;;;;;;;;;5031734;28;20045;-79
2022/12/04 02:28:03;;;;;;;22.23;10.77;;;;;;;;;;5002866;28;20196;-79
2022/12/04 02:30:29;;;;;;;19.50;9.65;;;;;;;;;;5008036;28;20038;-79
2022/12/04 02:32:58;;;;;;;20.77;9.57;;;;;;;;;;5003280;28;20053;-79
2022/12/04 02:35:30;;;;;;;18.23;9.38;;;;;;;;;;5008706;28;20520;-80
2022/12/04 02:38:01;;;;;;;18.50;9.63;;;;;;;;;;5011057;28;20046;-80
2022/12/04 02:40:31;;;;;;;15.77;7.28;;;;;;;;;;5008028;28;20049;-80
2022/12/04 02:43:05;;;;;;;21.48;12.00;;;;;;;;;;5021845;28;20609;-80
2022/12/04 02:45:34;;;;;;;20.08;10.88;;;;;;;;;;5007378;28;20046;-80
2022/12/04 02:48:01;;;;;;;19.40;10.55;;;;;;;;;;5007497;28;20046;-80
2022/12/04 02:50:28;;;;;;;11.57;5.80;;;;;;;;;;5006686;28;20045;-78
2022/12/04 02:53:01;;;;;;;18.38;10.02;;;;;;;;;;5006097;28;20112;-79
2022/12/04 02:55:35;;;;;;;16.90;10.30;;;;;;;;;;5006331;28;20041;-80
2022/12/04 02:58:05;;;;;;;19.75;10.65;;;;;;;;;;5011111;28;20903;-80
2022/12/04 03:00:32;;;;;;;17.90;9.95;;;;;;;;;;5011173;28;20042;-80
2022/12/04 03:03:09;;;;;;;22.63;9.73;;;;;;;;;;5010704;28;20104;-80
2022/12/04 03:05:40;;;;;;;22.85;11.65;;;;;;;;;;5027870;28;20519;-79
2022/12/04 03:08:29;;;;;;;19.98;10.88;;;;;;;;;;5010601;28;20112;-79
2022/12/04 03:10:57;;;;;;;20.02;10.77;;;;;;;;;;5006511;28;20112;-79
2022/12/04 03:13:25;;;;;;;20.73;9.73;;;;;;;;;;5009908;28;20053;-80
2022/12/04 03:15:53;;;;;;;16.95;9.68;;;;;;;;;;5010411;28;20053;-80
2022/12/04 03:18:22;;;;;;;17.60;7.95;;;;;;;;;;5010685;28;20034;-79
2022/12/04 03:20:52;;;;;;;18.98;10.55;;;;;;;;;;5011308;28;20172;-79
2022/12/04 03:23:23;;;;;;;20.92;10.50;;;;;;;;;;5011441;28;20046;-79
2022/12/04 03:26:08;;;;;;;17.92;10.48;;;;;;;;;;5028854;28;20050;-80
2022/12/04 03:28:39;;;;;;;22.23;11.25;;;;;;;;;;5026290;28;20088;-79
2022/12/04 03:31:07;;;;;;;17.13;9.60;;;;;;;;;;5027495;28;20041;-79
2022/12/04 03:33:41;;;;;;;20.33;9.82;;;;;;;;;;5027167;28;20049;-79
2022/12/04 03:36:20;;;;;;;20.08;10.00;;;;;;;;;;5031590;28;20632;-79
2022/12/04 03:39:12;;;;;;;19.52;10.60;;;;;;;;;;5026822;28;20153;-79
2022/12/04 03:41:54;;;;;;;18.35;9.32;;;;;;;;;;5007031;28;20049;-80
2022/12/04 03:44:24;;;;;;;20.80;10.00;;;;;;;;;;5027608;28;20078;-79
2022/12/04 03:47:11;;;;;;;17.73;10.25;;;;;;;;;;5030401;28;20049;-80
2022/12/04 03:49:44;;;;;;;21.55;11.90;;;;;;;;;;5028839;28;20045;-80
2022/12/04 03:52:22;;;;;;;16.85;9.85;;;;;;;;;;5030703;28;20056;-80
2022/12/04 03:54:51;;;;;;;22.15;11.27;;;;;;;;;;5034616;28;20722;-79
2022/12/04 03:57:22;;;;;;;18.85;10.90;;;;;;;;;;5040861;28;20045;-80
2022/12/04 04:00:05;;;;;;;20.33;9.63;;;;;;;;;;5028919;28;20038;-79
2022/12/04 04:02:31;;;;;;;;;;;;;;;;;;5028003;28;20049;-79
2022/12/04 04:04:58;;;;;;;17.02;8.98;;;;;;;;;;5031887;28;19924;-80
2022/12/04 04:07:28;;;;;;;19.42;10.07;;;;;;;;;;5031421;28;20511;-80
2022/12/04 04:10:07;;;;;;;18.85;10.63;;;;;;;;;;5030317;28;20038;-79
2022/12/04 04:12:36;;;;;;;19.48;8.85;;;;;;;;;;5037796;28;20119;-80
2022/12/04 04:26:16;;;;;;;18.75;10.35;;;;;;;;;;5030348;28;20057;-81
2022/12/04 04:28:42;;;;;;;18.50;9.57;;;;;;;;;;5030755;28;20042;-80
2022/12/04 04:31:17;;;;;;;22.52;10.70;;;;;;;;;;5027135;28;20046;-81
2022/12/04 04:33:55;;;;;;;23.75;10.02;;;;;;;;;;5031989;28;20037;-81
2022/12/04 04:36:21;;;;;;;18.40;10.73;;;;;;;;;;5025768;28;20201;-80
2022/12/04 04:39:10;;;;;;;22.95;11.85;;;;;;;;;;5032381;28;20049;-80
2022/12/04 04:41:42;;;;;;;18.42;9.65;;;;;;;;;;5046757;28;20061;-80
2022/12/04 04:44:08;;;;;;;20.92;9.68;;;;;;;;;;5030603;28;20042;-80
2022/12/04 04:46:37;;;;;;;21.85;11.88;;;;;;;;;;5031724;28;20050;-80
2022/12/04 04:49:05;;;;;;;22.08;11.63;;;;;;;;;;5037858;28;20432;-80
2022/12/04 04:51:33;;;;;;;18.33;11.10;;;;;;;;;;5038375;28;20431;-80
2022/12/04 04:54:01;;;;;;;20.52;10.40;;;;;;;;;;5045637;28;20095;-79
2022/12/04 04:56:28;;;;;;;21.33;11.38;;;;;;;;;;5036966;28;20053;-80
2022/12/04 04:58:54;;;;;;;20.85;10.98;;;;;;;;;;5033219;28;20196;-80
2022/12/04 05:01:22;;;;;;;20.58;10.43;;;;;;;;;;5031096;28;20048;-80
2022/12/04 05:03:48;;;;;;;15.38;8.00;;;;;;;;;;5030198;28;20100;-79
2022/12/04 05:06:14;;;;;;;18.45;9.88;;;;;;;;;;5030202;28;20668;-80
2022/12/04 05:08:40;;;;;;;20.63;10.80;;;;;;;;;;5031473;28;20048;-80
2022/12/04 05:11:10;;;;;;;21.17;10.88;;;;;;;;;;5031284;28;20033;-80
2022/12/04 05:13:36;;;;;;;20.67;10.73;;;;;;;;;;5038820;28;20068;-80
2022/12/04 05:16:04;;;;;;;22.67;10.45;;;;;;;;;;5030972;28;20049;-80
2022/12/04 05:18:31;;;;;;;18.90;10.00;;;;;;;;;;5033407;28;20180;-80
2022/12/04 05:20:57;;;;;;;25.85;11.35;;;;;;;;;;5028715;28;20037;-80
2022/12/04 05:23:23;;;;;;;22.67;10.80;;;;;;;;;;5032771;28;20044;-80
2022/12/04 05:25:49;;;;;;;21.23;11.20;;;;;;;;;;5032157;28;20052;-80
2022/12/04 05:28:15;;;;;;;21.30;10.27;;;;;;;;;;5030945;28;20038;-80
2022/12/04 05:30:42;;;;;;;21.25;11.02;;;;;;;;;;5033981;28;20080;-80
2022/12/04 05:33:09;;;;;;;21.52;10.05;;;;;;;;;;5032284;28;20269;-80
2022/12/04 05:35:35;;;;;;;18.98;9.85;;;;;;;;;;5031733;28;20520;-81
2022/12/04 05:38:01;;;;;;;22.35;12.68;;;;;;;;;;5036714;28;20587;-80
2022/12/04 05:40:27;;;;;;;28.50;11.57;;;;;;;;;;5036931;28;20923;-80
2022/12/04 05:42:54;;;;;;;24.40;11.82;;;;;;;;;;5036020;28;20071;-80
2022/12/04 05:45:20;;;;;;;25.80;10.82;;;;;;;;;;5035869;28;20614;-80
2022/12/04 05:47:46;;;;;;;20.08;10.23;;;;;;;;;;5030638;28;20037;-80
2022/12/04 05:50:13;;;;;;;20.83;10.90;;;;;;;;;;5037532;28;20041;-80
2022/12/04 05:52:39;;;;;;;19.27;10.48;;;;;;;;;;5036654;28;20038;-81
2022/12/04 05:55:05;;;;;;;15.98;9.30;;;;;;;;;;5036122;28;20366;-81
2022/12/04 05:57:32;;;;;;;27.48;12.57;;;;;;;;;;5035269;28;20103;-80
2022/12/04 05:59:58;;;;;;;23.50;10.25;;;;;;;;;;5036114;28;20041;-81
2022/12/04 06:02:24;;;;;;;21.90;11.27;;;;;;;;;;5052041;28;20083;-79
2022/12/04 06:04:50;;;;;;;20.67;11.18;;;;;;;;;;5035798;28;20046;-81
2022/12/04 06:07:16;;;;;;;25.90;11.75;;;;;;;;;;5035501;28;20038;-80
2022/12/04 06:09:42;;;;;;;22.05;10.57;;;;;;;;;;5032992;28;20041;-81
2022/12/04 06:12:08;;;;;;;22.00;12.52;;;;;;;;;;5037779;28;20045;-80
2022/12/04 06:14:34;;;;;;;18.70;9.25;;;;;;;;;;5037367;28;20046;-80
2022/12/04 06:17:00;;;;;;;25.77;11.95;;;;;;;;;;5048708;28;20129;-80
2022/12/04 06:19:26;;;;;;;22.90;10.88;;;;;;;;;;5034547;28;20148;-81
2022/12/04 06:21:54;;;;;;;21.40;11.27;;;;;;;;;;5035509;28;20046;-80
2022/12/04 06:24:21;;;;;;;22.08;10.20;;;;;;;;;;5035989;28;20441;-81
2022/12/04 06:26:48;;;;;;;27.30;13.88;;;;;;;;;;5035050;28;20061;-79
2022/12/04 06:29:14;;;;;;;24.67;12.07;;;;;;;;;;5035982;28;20042;-80
2022/12/04 06:31:40;;;;;;;27.38;13.90;;;;;;;;;;5034524;28;20040;-79
2022/12/04 06:34:07;;;;;;;20.17;10.75;;;;;;;;;;5053796;28;20049;-79
2022/12/04 06:36:34;;;;;;;24.23;11.95;;;;;;;;;;5042193;28;20045;-79
2022/12/04 06:39:00;;;;;;;22.25;10.93;;;;;;;;;;5039069;28;20081;-80
2022/12/04 06:41:26;;;;;;;20.52;10.07;;;;;;;;;;5040186;28;20057;-80
2022/12/04 06:43:53;;;;;;;23.10;10.38;;;;;;;;;;5043063;28;20820;-80
2022/12/04 06:46:20;;;;;;;21.25;10.13;;;;;;;;;;5040076;28;20033;-79
2022/12/04 06:48:47;;;;;;;20.80;11.60;;;;;;;;;;5039797;28;20132;-79
2022/12/04 06:51:18;;;;;;;25.33;12.80;;;;;;;;;;5032433;28;20041;-80
2022/12/04 06:53:44;;;;;;;20.52;12.73;;;;;;;;;;5035894;28;20033;-80
2022/12/04 06:56:13;;;;;;;29.10;10.95;;;;;;;;;;5047960;28;20041;-79
2022/12/04 06:58:39;;;;;;;20.63;11.43;;;;;;;;;;5028953;28;20498;-79
2022/12/04 07:01:06;;;;;;;20.83;11.48;;;;;;;;;;5043878;28;20046;-80
2022/12/04 07:03:33;;;;;;;26.20;12.48;;;;;;;;;;5032739;28;20045;-78
2022/12/04 07:05:59;;;;;;;25.05;12.48;;;;;;;;;;5032455;28;20045;-80
2022/12/04 07:08:25;;;;;;;23.40;11.65;;;;;;;;;;5034312;28;20052;-80
2022/12/04 07:10:51;;;;;;;26.95;12.10;;;;;;;;;;5032889;28;20097;-79
2022/12/04 07:13:17;;;;;;;30.33;14.80;;;;;;;;;;5030165;28;20091;-79
2022/12/04 07:15:43;;;;;;;26.58;12.82;;;;;;;;;;5024763;28;20176;-80
2022/12/04 07:18:09;;;;;;;20.63;11.38;;;;;;;;;;5028835;28;20053;-79
2022/12/04 07:20:38;;;;;;;27.65;14.15;;;;;;;;;;5028028;28;21665;-80
2022/12/04 07:23:04;;;;;;;26.80;13.20;;;;;;;;;;5028154;28;20053;-80
2022/12/04 07:25:31;;;;;;;26.55;12.68;;;;;;;;;;5025176;28;20092;-79
2022/12/04 07:27:57;;;;;;;31.33;13.93;;;;;;;;;;5026853;28;20128;-79
2022/12/04 07:30:23;;;;;;;24.27;12.05;;;;;;;;;;5024000;28;20052;-80
2022/12/04 07:32:49;;;;;;;32.05;14.25;;;;;;;;;;5027260;28;20049;-79
2022/12/04 07:35:15;;;;;;;27.90;14.18;;;;;;;;;;5029294;28;20120;-78
2022/12/04 07:37:41;;;;;;;27.63;13.40;;;;;;;;;;5021723;28;20037;-79
2022/12/04 07:40:08;;;;;;;32.38;14.75;;;;;;;;;;5026888;28;20657;-79
2022/12/04 07:42:34;;;;;;;34.53;13.20;;;;;;;;;;5027969;28;20062;-78
2022/12/04 07:45:00;;;;;;;31.60;13.73;;;;;;;;;;5027793;28;20173;-79
2022/12/04 07:47:26;;;;;;;26.52;13.20;;;;;;;;;;5044890;28;20401;-78
2022/12/04 07:49:52;;;;;;;27.13;12.80;;;;;;;;;;5030625;28;20092;-79
2022/12/04 07:52:18;;;;;;;31.88;15.70;;;;;;;;;;5029845;28;20042;-79
2022/12/04 07:54:44;;;;;;;30.15;14.52;;;;;;;;;;5030703;28;20120;-79
2022/12/04 07:57:10;;;;;;;32.47;14.75;;;;;;;;;;5030952;28;20257;-79
2022/12/04 07:59:36;;;;;;;27.88;12.27;;;;;;;;;;5044593;28;20101;-78
2022/12/04 08:02:05;;;;;;;38.92;16.75;;;;;;;;;;5027378;28;20037;-79
2022/12/04 08:04:31;;;;;;;32.55;12.52;;;;;;;;;;5025618;28;20088;-79
2022/12/04 08:06:57;;;;;;;30.10;15.15;;;;;;;;;;5027394;28;20516;-80
2022/12/04 08:09:24;;;;;;;28.63;14.52;;;;;;;;;;5027549;28;20140;-79
2022/12/04 08:11:50;;;;;;;25.40;13.30;;;;;;;;;;5026778;28;20045;-79
2022/12/04 08:14:16;;;;;;;31.50;15.13;;;;;;;;;;5029720;28;20041;-78
2022/12/04 08:16:43;;;;;;;30.10;14.32;;;;;;;;;;5029690;28;20053;-79
2022/12/04 08:19:09;;;;;;;28.50;13.32;;;;;;;;;;5030241;28;20595;-79
2022/12/04 08:21:35;;;;;;;32.20;13.65;;;;;;;;;;5030717;28;20097;-80
2022/12/04 08:24:01;;;;;;;30.42;13.25;;;;;;;;;;5029282;28;20042;-78
2022/12/04 08:26:29;;;;;;;35.65;15.73;;;;;;;;;;5046158;28;20597;-79
2022/12/04 08:28:56;;;;;;;36.05;16.13;;;;;;;;;;5027787;28;20084;-79
2022/12/04 08:31:23;;;;;;;23.60;11.73;;;;;;;;;;5030041;28;20108;-79
2022/12/04 08:33:50;;;;;;;34.75;13.80;;;;;;;;;;5028441;28;20045;-79
2022/12/04 08:36:18;;;;;;;28.00;12.70;;;;;;;;;;5026066;28;20128;-79
2022/12/04 08:38:44;;;;;;;28.25;14.50;;;;;;;;;;5043655;28;20037;-77
2022/12/04 08:41:11;;;;;;;40.70;16.35;;;;;;;;;;5046758;28;20052;-78
2022/12/04 08:43:37;;;;;;;29.60;16.15;;;;;;;;;;5031840;28;20038;-78
2022/12/04 08:46:05;;;;;;;20.48;9.05;;;;;;;;;;5028685;28;20141;-78
2022/12/04 08:48:31;;;;;;;30.75;14.70;;;;;;;;;;5032911;28;20534;-78
2022/12/04 08:50:58;;;;;;;28.67;11.75;;;;;;;;;;5026899;28;20056;-79
2022/12/04 08:53:24;;;;;;;36.42;16.55;;;;;;;;;;5026566;28;20041;-79
2022/12/04 08:55:51;;;;;;;32.92;15.70;;;;;;;;;;5026039;28;20033;-79
2022/12/04 08:58:17;;;;;;;30.88;15.05;;;;;;;;;;5042912;28;20124;-79
2022/12/04 09:00:43;;;;;;;31.77;14.35;;;;;;;;;;5028366;28;20046;-79
2022/12/04 09:05:40;;;;;;;31.02;13.00;;;;;;;;;;5006241;28;20128;-74
2022/12/04 09:08:06;;;;;;;36.03;15.18;;;;;;;;;;4989160;28;20523;-74
2022/12/04 09:10:36;;;;;;;30.90;11.88;;;;;;;;;;5005732;28;20042;-75
2022/12/04 09:13:02;;;;;;;31.27;15.85;;;;;;;;;;5011631;28;20592;-75
2022/12/04 09:15:28;;;;;;;26.73;14.88;;;;;;;;;;5004591;28;20523;-75
2022/12/04 09:17:54;;;;;;;30.02;15.85;;;;;;;;;;5012163;28;20046;-75
2022/12/04 09:20:20;;;;;;;31.52;14.07;;;;;;;;;;5011188;28;20046;-75
2022/12/04 09:22:46;;;;;;;29.33;14.23;;;;;;;;;;5009096;28;20813;-75
2022/12/04 09:25:13;;;;;;;35.28;15.95;;;;;;;;;;5012471;28;20117;-75
2022/12/04 09:27:42;;;;;;;38.53;16.48;;;;;;;;;;5012691;28;20045;-75
2022/12/04 09:30:09;;;;;;;35.42;15.80;;;;;;;;;;5012176;28;20054;-76
2022/12/04 09:32:36;;;;;;;29.92;15.15;;;;;;;;;;5013596;28;20042;-75
2022/12/04 09:35:02;;;;;;;33.75;15.00;;;;;;;;;;5013947;28;20044;-75
2022/12/04 09:37:28;;;;;;;26.67;13.80;;;;;;;;;;5017543;28;20057;-75
2022/12/04 09:39:54;;;;;;;30.52;15.77;;;;;;;;;;5015879;28;20046;-75
2022/12/04 09:42:28;;;;;;;33.33;14.63;;;;;;;;;;5017197;28;20049;-75
2022/12/04 09:44:57;;;;;;;28.35;15.60;;;;;;;;;;5016338;28;20096;-75
2022/12/04 09:47:23;;;;;;;29.70;14.65;;;;;;;;;;5014352;28;20037;-75
2022/12/04 09:50:08;;;;;;;37.72;13.60;;;;;;;;;;5015018;28;20140;-75
2022/12/04 09:52:34;;;;;;;31.08;14.18;;;;;;;;;;5018545;28;20077;-75
2022/12/04 09:55:03;;;;;;;33.22;14.38;;;;;;;;;;4997087;28;20046;-75
2022/12/04 09:57:41;;;;;;;36.05;18.00;;;;;;;;;;4999778;28;20129;-75
2022/12/04 10:00:12;;;;;;;35.35;15.98;;;;;;;;;;5015222;28;20141;-75
2022/12/04 10:02:39;;;;;;;39.53;17.73;;;;;;;;;;5014043;28;20056;-75
2022/12/04 10:05:11;;;;;;;32.00;16.63;;;;;;;;;;5016470;28;20551;-75
2022/12/04 10:07:45;;;;;;;39.30;17.15;;;;;;;;;;5012204;28;20045;-75
2022/12/04 10:10:20;;;;;;;39.55;16.83;;;;;;;;;;5008380;28;20069;-75
2022/12/04 10:12:55;;;;;;;34.78;15.75;;;;;;;;;;4990629;28;21076;-74
2022/12/04 10:15:21;;;;;;;35.78;17.27;;;;;;;;;;5007191;28;20147;-75
2022/12/04 10:17:53;;;;;;;31.65;14.63;;;;;;;;;;5007685;28;20550;-75
2022/12/04 10:20:19;;;;;;;32.05;15.35;;;;;;;;;;5008871;28;20125;-75
2022/12/04 10:22:55;;;;;;;32.38;15.25;;;;;;;;;;4981378;28;20048;-75
2022/12/04 10:25:22;;;;;;;36.88;15.55;;;;;;;;;;4988812;28;20042;-75
2022/12/04 10:27:52;;;;;;;30.00;16.23;;;;;;;;;;5002423;28;20045;-75
2022/12/04 10:30:24;;;;;;;33.13;14.77;;;;;;;;;;5006252;28;20523;-75
2022/12/04 10:32:57;;;;;;;32.67;17.45;;;;;;;;;;5004048;28;20233;-75
2022/12/04 10:35:25;;;;;;;34.60;17.90;;;;;;;;;;5005689;28;20048;-75
2022/12/04 10:37:55;;;;;;;35.35;15.80;;;;;;;;;;4989348;28;20045;-75
2022/12/04 10:40:23;;;;;;;33.03;14.15;;;;;;;;;;5005127;28;20049;-75
2022/12/04 10:42:57;;;;;;;32.53;15.88;;;;;;;;;;5005377;28;20041;-75
2022/12/04 10:45:23;;;;;;;43.65;19.15;;;;;;;;;;5004850;28;20045;-75
2022/12/04 10:47:51;;;;;;;33.55;17.25;;;;;;;;;;5004151;28;20057;-75
2022/12/04 10:50:18;;;;;;;39.38;21.05;;;;;;;;;;5005660;28;20073;-75
2022/12/04 10:52:44;;;;;;;39.65;20.55;;;;;;;;;;5003838;28;20050;-75
2022/12/04 10:55:10;;;;;;;32.45;15.85;;;;;;;;;;5008376;28;20153;-75
2022/12/04 10:57:38;;;;;;;30.15;16.30;;;;;;;;;;4986651;28;20041;-75
2022/12/04 11:00:23;;;;;;;36.08;20.73;;;;;;;;;;5005042;28;20050;-75
2022/12/04 11:02:50;;;;;;;38.03;19.27;;;;;;;;;;5002800;28;20050;-75
2022/12/04 11:05:24;;;;;;;36.35;19.20;;;;;;;;;;4987090;28;20054;-75
2022/12/04 11:07:50;;;;;;;31.65;17.52;;;;;;;;;;5003996;28;20042;-75
2022/12/04 11:10:17;;;;;;;34.90;16.85;;;;;;;;;;4986808;28;20042;-75
2022/12/04 11:12:53;;;;;;;29.95;15.55;;;;;;;;;;5004762;28;20042;-75
2022/12/04 11:15:19;;;;;;;30.77;16.45;;;;;;;;;;4986139;28;20037;-75
2022/12/04 11:17:45;;;;;;;35.95;16.02;;;;;;;;;;5006204;28;20037;-76
2022/12/04 11:20:29;;;;;;;29.30;16.95;;;;;;;;;;5009788;28;20061;-76
2022/12/04 11:22:56;;;;;;;36.33;16.17;;;;;;;;;;5010405;28;20045;-76
2022/12/04 11:25:23;;;;;;;36.30;17.02;;;;;;;;;;5010694;28;20124;-76
2022/12/04 11:27:58;;;;;;;34.70;16.00;;;;;;;;;;4994453;28;20046;-76
2022/12/04 11:30:29;;;;;;;30.38;16.33;;;;;;;;;;5011776;28;20888;-76
2022/12/04 11:32:55;;;;;;;34.75;17.15;;;;;;;;;;5009297;28;20053;-75
2022/12/04 11:35:25;;;;;;;36.53;16.85;;;;;;;;;;5010157;28;20046;-75
2022/12/04 11:38:11;;;;;;;32.72;17.05;;;;;;;;;;5010243;28;20042;-75
2022/12/04 11:40:38;;;;;;;22.08;12.20;;;;;;;;;;5011042;28;20611;-76
2022/12/04 11:43:10;;;;;;;32.03;15.80;;;;;;;;;;5007435;28;20132;-75
2022/12/04 11:45:36;;;;;;;30.05;15.98;;;;;;;;;;5010110;28;20096;-75
2022/12/04 11:48:04;;;;;;;29.42;16.77;;;;;;;;;;5007913;28;20112;-76
2022/12/04 11:50:37;;;;;;;25.15;13.00;;;;;;;;;;4990933;28;20041;-76
2022/12/04 11:53:16;;;;;;;32.25;15.23;;;;;;;;;;5009997;28;20078;-76
2022/12/04 11:55:42;;;;;;;30.63;15.70;;;;;;;;;;5011639;28;20090;-76
2022/12/04 11:58:21;;;;;;;29.35;14.95;;;;;;;;;;5009226;28;20038;-76
2022/12/04 12:01:13;;;;;;;31.90;15.07;;;;;;;;;;5009788;28;20073;-76
2022/12/04 12:03:48;;;;;;;33.65;14.13;;;;;;;;;;5007983;28;20057;-75
2022/12/04 12:06:29;;;;;;;28.35;12.98;;;;;;;;;;4990971;28;20041;-76
2022/12/04 12:08:55;;;;;;;33.80;15.90;;;;;;;;;;5010922;28;20069;-75
2022/12/04 12:11:28;;;;;;;29.60;14.85;;;;;;;;;;5009993;28;20042;-76
2022/12/04 12:14:17;;;;;;;32.33;15.63;;;;;;;;;;5009874;28;20038;-76
2022/12/04 12:16:44;;;;;;;27.27;13.70;;;;;;;;;;4991220;28;20045;-77
2022/12/04 12:19:13;;;;;;;39.88;18.92;;;;;;;;;;4997337;28;20069;-76
2022/12/04 12:21:58;;;;;;;27.75;14.63;;;;;;;;;;5011404;28;20077;-76
2022/12/04 12:24:24;;;;;;;34.03;15.32;;;;;;;;;;5014340;28;20046;-75
2022/12/04 12:27:08;;;;;;;28.58;15.95;;;;;;;;;;5014221;28;20045;-77
2022/12/04 12:29:37;;;;;;;27.40;13.88;;;;;;;;;;4995776;28;20050;-76
2022/12/04 12:32:08;;;;;;;33.50;15.48;;;;;;;;;;5013105;28;20041;-76
2022/12/04 12:34:34;;;;;;;28.02;13.88;;;;;;;;;;5011888;28;20046;-76
2022/12/04 12:37:04;;;;;;;34.83;16.13;;;;;;;;;;5013819;28;20046;-76
2022/12/04 12:39:38;;;;;;;33.50;16.05;;;;;;;;;;5012991;28;20056;-76
2022/12/04 12:42:06;;;;;;;28.98;15.50;;;;;;;;;;5008450;28;20058;-76
2022/12/04 12:44:34;;;;;;;26.42;14.80;;;;;;;;;;4992809;28;20034;-76
2022/12/04 12:47:07;;;;;;;36.10;16.38;;;;;;;;;;5012684;28;20041;-76
2022/12/04 12:49:33;;;;;;;;;;;;;;;;;;5013079;28;20252;-76
2022/12/04 12:52:02;;;;;;;32.95;15.63;;;;;;;;;;5010786;28;21970;-76
2022/12/04 12:54:34;;;;;;;34.28;16.38;;;;;;;;;;4992495;28;20457;-76
2022/12/04 12:57:12;;;;;;;32.45;15.65;;;;;;;;;;5012714;28;20045;-76
2022/12/04 12:59:41;;;;;;;32.03;14.32;;;;;;;;;;5008981;28;20045;-76
2022/12/04 13:02:26;;;;;;;35.13;16.30;;;;;;;;;;5007955;28;20606;-76
2022/12/04 13:04:53;;;;;;;35.28;16.27;;;;;;;;;;5012724;28;20054;-76
2022/12/04 13:07:25;;;;;;;36.28;15.98;;;;;;;;;;5009692;28;20049;-76
2022/12/04 13:09:51;;;;;;;;;;;;;;;;;;4994741;28;20127;-76
2022/12/04 13:12:18;;;;;;;33.97;13.82;;;;;;;;;;5008700;28;20459;-76
2022/12/04 13:14:44;;;;;;;34.38;14.82;;;;;;;;;;5013535;28;20376;-76
2022/12/04 13:17:19;;;;;;;31.40;15.38;;;;;;;;;;5017110;28;20037;-76
2022/12/04 13:19:48;;;;;;;32.42;15.77;;;;;;;;;;5018360;28;20050;-76
2022/12/04 13:22:33;;;;;;;30.25;15.75;;;;;;;;;;5015203;28;20069;-76
2022/12/04 13:24:59;;;;;;;33.78;16.92;;;;;;;;;;5009372;28;20048;-76
2022/12/04 13:27:28;;;;;;;33.38;15.85;;;;;;;;;;5011027;28;20045;-76
2022/12/04 13:30:13;;;;;;;35.08;16.73;;;;;;;;;;5011881;28;20811;-76
2022/12/04 13:32:53;;;;;;;30.10;15.05;;;;;;;;;;4995534;28;20042;-76
2022/12/04 13:35:31;;;;;;;27.90;14.00;;;;;;;;;;5008451;28;20599;-76
2022/12/04 13:38:06;;;;;;;28.10;13.57;;;;;;;;;;4990619;28;20044;-76
2022/12/04 13:40:35;;;;;;;31.00;12.38;;;;;;;;;;5011605;28;20034;-76
2022/12/04 13:43:15;;;;;;;29.08;13.65;;;;;;;;;;5011669;28;20034;-76
2022/12/04 13:45:41;;;;;;;29.13;14.23;;;;;;;;;;5011664;28;20578;-76
2022/12/04 13:48:09;;;;;;;34.25;18.38;;;;;;;;;;5006759;28;21320;-76
2022/12/04 13:50:37;;;;;;;32.80;14.82;;;;;;;;;;4986229;28;20041;-76
2022/12/04 13:53:04;;;;;;;34.55;15.98;;;;;;;;;;5010860;28;20484;-76
2022/12/04 13:55:30;;;;;;;31.77;15.25;;;;;;;;;;5010112;28;20578;-76
2022/12/04 13:58:01;;;;;;;26.67;11.80;;;;;;;;;;5011079;28;20100;-76
2022/12/04 14:00:29;;;;;;;28.45;14.32;;;;;;;;;;5010272;28;20112;-75
2022/12/04 14:02:57;;;;;;;29.38;14.93;;;;;;;;;;4993090;28;20050;-75
2022/12/04 14:05:31;;;;;;;27.05;15.40;;;;;;;;;;5001040;28;20061;-75
2022/12/04 14:08:00;;;;;;;30.15;13.45;;;;;;;;;;5007184;28;20052;-75
2022/12/04 14:10:35;;;;;;;32.40;13.98;;;;;;;;;;5010719;28;20046;-74
2022/12/04 14:13:06;;;;;;;33.67;15.45;;;;;;;;;;5013515;28;20145;-75
2022/12/04 14:15:33;;;;;;;24.83;12.52;;;;;;;;;;4995647;28;20125;-76
2022/12/04 14:18:04;;;;;;;28.80;15.70;;;;;;;;;;5013864;28;20092;-75
2022/12/04 14:20:32;;;;;;;26.20;14.57;;;;;;;;;;5013533;28;20049;-77
2022/12/04 14:23:11;;;;;;;34.75;16.80;;;;;;;;;;5013536;28;20558;-91
2022/12/04 14:25:38;;;;;;;26.30;13.90;;;;;;;;;;5008485;28;20049;-79
2022/12/04 14:28:23;;;;;;;33.78;15.30;;;;;;;;;;5012552;28;20041;-77
2022/12/04 14:31:04;;;;;;;32.97;14.63;;;;;;;;;;4990732;28;20046;-85
2022/12/04 14:33:32;;;;;;;30.80;13.80;;;;;;;;;;4993296;28;20092;-76
2022/12/04 14:36:03;;;;;;;32.35;14.07;;;;;;;;;;5008691;28;20038;-76
2022/12/04 14:38:29;;;;;;;29.15;13.60;;;;;;;;;;4994248;28;20045;-75
2022/12/04 14:40:57;;;;;;;30.45;14.98;;;;;;;;;;4991667;28;20046;-75
2022/12/04 14:43:25;;;;;;;35.22;16.30;;;;;;;;;;5009263;28;20046;-76
2022/12/04 14:45:57;;;;;;;33.15;15.18;;;;;;;;;;4991687;28;20049;-74
2022/12/04 14:48:37;;;;;;;28.85;14.45;;;;;;;;;;5007467;28;20148;-75